sensor_id;sensor_type;location;lat;lon;timestamp;P1;durP1;ratioP1;P2;durP2;ratioP2
32347;SDS011;18821;44.800;10.326;2022-08-27T14:56:43;3.47;;;3.10;;
32347;SDS011;18821;44.800;10.326;2022-08-27T14:59:10;7.55;;;3.67;;
32347;SDS011;18821;44.800;10.326;2022-08-27T15:01:36;4.55;;;3.28;;
32347;SDS011;18821;44.800;10.326;2022-08-27T15:04:03;6.18;;;3.33;;
32347;SDS011;18821;44.800;10.326;2022-08-27T15:06:29;3.97;;;3.25;;
32347;SDS011;18821;44.800;10.326;2022-08-27T15:08:55;5.40;;;3.50;;
32347;SDS011;18821;44.800;10.326;2022-08-27T15:11:26;4.22;;;2.85;;
32347;SDS011;18821;44.800;10.326;2022-08-27T15:13:54;4.13;;;3.10;;
32347;SDS011;18821;44.800;10.326;2022-08-27T15:16:28;4.22;;;3.80;;
32347;SDS011;18821;44.800;10.326;2022-08-27T15:18:58;6.72;;;4.10;;
32347;SDS011;18821;44.800;10.326;2022-08-27T15:21:25;5.97;;;4.13;;
32347;SDS011;18821;44.800;10.326;2022-08-27T15:23:56;4.88;;;4.43;;
32347;SDS011;18821;44.800;10.326;2022-08-27T15:26:24;5.22;;;4.22;;
32347;SDS011;18821;44.800;10.326;2022-08-27T15:28:50;6.28;;;4.95;;
32347;SDS011;18821;44.800;10.326;2022-08-27T15:31:17;5.15;;;3.95;;
32347;SDS011;18821;44.800;10.326;2022-08-27T15:33:44;5.38;;;3.60;;
32347;SDS011;18821;44.800;10.326;2022-08-27T15:36:10;8.35;;;3.33;;
32347;SDS011;18821;44.800;10.326;2022-08-27T15:38:37;6.70;;;4.40;;
32347;SDS011;18821;44.800;10.326;2022-08-27T15:41:04;7.50;;;4.22;;
32347;SDS011;18821;44.800;10.326;2022-08-27T15:43:33;5.80;;;4.47;;
32347;SDS011;18821;44.800;10.326;2022-08-27T15:45:59;4.68;;;4.00;;
32347;SDS011;18821;44.800;10.326;2022-08-27T15:48:25;5.13;;;3.58;;
32347;SDS011;18821;44.800;10.326;2022-08-27T15:50:51;13.55;;;3.80;;
32347;SDS011;18821;44.800;10.326;2022-08-27T15:53:18;8.95;;;3.67;;
32347;SDS011;18821;44.800;10.326;2022-08-27T15:55:48;6.43;;;4.97;;
32347;SDS011;18821;44.800;10.326;2022-08-27T15:58:15;7.65;;;4.22;;
32347;SDS011;18821;44.800;10.326;2022-08-27T16:00:41;5.82;;;3.75;;
32347;SDS011;18821;44.800;10.326;2022-08-27T16:03:09;10.20;;;4.07;;
32347;SDS011;18821;44.800;10.326;2022-08-27T16:05:39;8.25;;;4.57;;
32347;SDS011;18821;44.800;10.326;2022-08-27T16:08:06;5.43;;;4.32;;
32347;SDS011;18821;44.800;10.326;2022-08-27T16:10:33;5.22;;;4.13;;
32347;SDS011;18821;44.800;10.326;2022-08-27T16:12:59;8.20;;;4.22;;
32347;SDS011;18821;44.800;10.326;2022-08-27T16:15:26;5.93;;;4.55;;
32347;SDS011;18821;44.800;10.326;2022-08-27T16:17:56;5.13;;;4.07;;
32347;SDS011;18821;44.800;10.326;2022-08-27T16:20:24;6.22;;;3.40;;
32347;SDS011;18821;44.800;10.326;2022-08-27T16:22:51;5.22;;;4.03;;
32347;SDS011;18821;44.800;10.326;2022-08-27T16:25:18;10.10;;;5.03;;
32347;SDS011;18821;44.800;10.326;2022-08-27T16:27:47;6.13;;;4.32;;
32347;SDS011;18821;44.800;10.326;2022-08-27T16:30:15;7.13;;;5.47;;
32347;SDS011;18821;44.800;10.326;2022-08-27T16:32:46;11.25;;;5.07;;
32347;SDS011;18821;44.800;10.326;2022-08-27T16:35:15;7.43;;;4.97;;
32347;SDS011;18821;44.800;10.326;2022-08-27T16:37:42;9.23;;;5.10;;
32347;SDS011;18821;44.800;10.326;2022-08-27T16:40:09;5.43;;;4.53;;
32347;SDS011;18821;44.800;10.326;2022-08-27T16:42:42;5.78;;;4.15;;
32347;SDS011;18821;44.800;10.326;2022-08-27T16:45:11;5.10;;;4.60;;
32347;SDS011;18821;44.800;10.326;2022-08-27T16:47:38;5.78;;;4.45;;
32347;SDS011;18821;44.800;10.326;2022-08-27T16:50:24;6.95;;;4.32;;
32347;SDS011;18821;44.800;10.326;2022-08-27T16:53:04;4.72;;;4.20;;
32347;SDS011;18821;44.800;10.326;2022-08-27T16:55:33;8.05;;;4.30;;
32347;SDS011;18821;44.800;10.326;2022-08-27T16:58:02;5.55;;;4.07;;
32347;SDS011;18821;44.800;10.326;2022-08-27T17:00:29;4.75;;;3.30;;
32347;SDS011;18821;44.800;10.326;2022-08-27T17:02:55;4.93;;;4.43;;
32347;SDS011;18821;44.800;10.326;2022-08-27T17:05:22;4.20;;;3.53;;
32347;SDS011;18821;44.800;10.326;2022-08-27T17:07:48;8.00;;;3.33;;
32347;SDS011;18821;44.800;10.326;2022-08-27T17:10:18;7.35;;;3.53;;
32347;SDS011;18821;44.800;10.326;2022-08-27T17:12:45;4.90;;;3.50;;
32347;SDS011;18821;44.800;10.326;2022-08-27T17:15:12;4.00;;;2.95;;
32347;SDS011;18821;44.800;10.326;2022-08-27T17:17:40;6.10;;;3.35;;
32347;SDS011;18821;44.800;10.326;2022-08-27T17:20:07;6.25;;;3.72;;
32347;SDS011;18821;44.800;10.326;2022-08-27T17:22:33;3.88;;;3.20;;
32347;SDS011;18821;44.800;10.326;2022-08-27T17:24:59;6.95;;;3.25;;
32347;SDS011;18821;44.800;10.326;2022-08-27T17:27:25;4.53;;;3.20;;
32347;SDS011;18821;44.800;10.326;2022-08-27T17:29:51;5.82;;;3.60;;
32347;SDS011;18821;44.800;10.326;2022-08-27T17:32:18;9.00;;;4.38;;
32347;SDS011;18821;44.800;10.326;2022-08-27T17:34:44;3.83;;;2.85;;
32347;SDS011;18821;44.800;10.326;2022-08-27T17:37:11;3.25;;;2.90;;
32347;SDS011;18821;44.800;10.326;2022-08-27T17:39:37;5.00;;;3.28;;
32347;SDS011;18821;44.800;10.326;2022-08-27T17:42:02;4.55;;;3.10;;
32347;SDS011;18821;44.800;10.326;2022-08-27T17:44:30;4.72;;;3.28;;
32347;SDS011;18821;44.800;10.326;2022-08-27T17:47:04;8.10;;;3.38;;
32347;SDS011;18821;44.800;10.326;2022-08-27T17:49:32;6.63;;;3.20;;
32347;SDS011;18821;44.800;10.326;2022-08-27T17:51:59;4.63;;;3.30;;
32347;SDS011;18821;44.800;10.326;2022-08-27T17:59:48;5.18;;;3.05;;
32347;SDS011;18821;44.800;10.326;2022-08-27T18:02:20;4.57;;;3.35;;
32347;SDS011;18821;44.800;10.326;2022-08-27T18:04:48;5.63;;;3.05;;
32347;SDS011;18821;44.800;10.326;2022-08-27T18:07:15;6.93;;;2.72;;
32347;SDS011;18821;44.800;10.326;2022-08-27T18:09:41;7.75;;;3.03;;
32347;SDS011;18821;44.800;10.326;2022-08-27T18:12:08;7.72;;;3.30;;
32347;SDS011;18821;44.800;10.326;2022-08-27T18:14:38;7.47;;;3.40;;
32347;SDS011;18821;44.800;10.326;2022-08-27T18:17:04;8.23;;;3.13;;
32347;SDS011;18821;44.800;10.326;2022-08-27T18:19:30;4.32;;;2.92;;
32347;SDS011;18821;44.800;10.326;2022-08-27T18:21:55;5.30;;;2.70;;
32347;SDS011;18821;44.800;10.326;2022-08-27T18:24:22;6.00;;;3.22;;
32347;SDS011;18821;44.800;10.326;2022-08-27T18:26:48;5.82;;;3.08;;
32347;SDS011;18821;44.800;10.326;2022-08-27T18:29:15;6.25;;;3.92;;
32347;SDS011;18821;44.800;10.326;2022-08-27T18:31:41;5.22;;;3.45;;
32347;SDS011;18821;44.800;10.326;2022-08-27T18:34:08;6.97;;;3.67;;
32347;SDS011;18821;44.800;10.326;2022-08-27T18:36:35;8.02;;;3.72;;
32347;SDS011;18821;44.800;10.326;2022-08-27T18:39:01;6.97;;;3.55;;
32347;SDS011;18821;44.800;10.326;2022-08-27T18:41:28;4.60;;;3.70;;
32347;SDS011;18821;44.800;10.326;2022-08-27T18:43:56;8.10;;;4.35;;
32347;SDS011;18821;44.800;10.326;2022-08-27T18:46:22;5.47;;;3.72;;
32347;SDS011;18821;44.800;10.326;2022-08-27T18:48:48;6.72;;;4.72;;
32347;SDS011;18821;44.800;10.326;2022-08-27T18:51:16;6.20;;;4.88;;
32347;SDS011;18821;44.800;10.326;2022-08-27T18:53:44;10.02;;;7.03;;
32347;SDS011;18821;44.800;10.326;2022-08-27T18:56:12;7.45;;;5.40;;
32347;SDS011;18821;44.800;10.326;2022-08-27T18:58:39;6.03;;;4.32;;
32347;SDS011;18821;44.800;10.326;2022-08-27T19:01:08;7.28;;;4.55;;
32347;SDS011;18821;44.800;10.326;2022-08-27T19:03:41;7.20;;;4.40;;
32347;SDS011;18821;44.800;10.326;2022-08-27T19:06:14;7.53;;;5.13;;
32347;SDS011;18821;44.800;10.326;2022-08-27T19:08:42;10.52;;;6.15;;
32347;SDS011;18821;44.800;10.326;2022-08-27T19:11:09;9.20;;;6.20;;
32347;SDS011;18821;44.800;10.326;2022-08-27T19:13:35;7.28;;;5.22;;
32347;SDS011;18821;44.800;10.326;2022-08-27T19:16:06;7.97;;;5.68;;
32347;SDS011;18821;44.800;10.326;2022-08-27T19:18:37;10.43;;;6.55;;
32347;SDS011;18821;44.800;10.326;2022-08-27T19:21:05;10.75;;;6.78;;
32347;SDS011;18821;44.800;10.326;2022-08-27T19:23:32;9.82;;;6.80;;
32347;SDS011;18821;44.800;10.326;2022-08-27T19:25:59;9.15;;;6.60;;
32347;SDS011;18821;44.800;10.326;2022-08-27T19:28:29;12.50;;;8.20;;
32347;SDS011;18821;44.800;10.326;2022-08-27T19:31:01;13.18;;;8.93;;
32347;SDS011;18821;44.800;10.326;2022-08-27T19:33:27;11.85;;;8.23;;
32347;SDS011;18821;44.800;10.326;2022-08-27T19:35:53;9.07;;;7.05;;
32347;SDS011;18821;44.800;10.326;2022-08-27T19:38:21;9.90;;;5.70;;
32347;SDS011;18821;44.800;10.326;2022-08-27T19:40:48;8.23;;;5.82;;
32347;SDS011;18821;44.800;10.326;2022-08-27T19:43:14;14.65;;;6.22;;
32347;SDS011;18821;44.800;10.326;2022-08-27T19:45:40;7.97;;;5.90;;
32347;SDS011;18821;44.800;10.326;2022-08-27T19:48:06;9.50;;;5.57;;
32347;SDS011;18821;44.800;10.326;2022-08-27T19:50:33;11.38;;;6.47;;
32347;SDS011;18821;44.800;10.326;2022-08-27T19:52:59;15.30;;;6.22;;
32347;SDS011;18821;44.800;10.326;2022-08-27T19:55:24;9.82;;;5.78;;
32347;SDS011;18821;44.800;10.326;2022-08-27T19:57:54;8.82;;;6.38;;
32347;SDS011;18821;44.800;10.326;2022-08-27T20:00:21;7.80;;;5.85;;
32347;SDS011;18821;44.800;10.326;2022-08-27T20:02:49;7.55;;;5.93;;
32347;SDS011;18821;44.800;10.326;2022-08-27T20:05:20;8.32;;;6.35;;
32347;SDS011;18821;44.800;10.326;2022-08-27T20:07:50;11.27;;;5.82;;
32347;SDS011;18821;44.800;10.326;2022-08-27T20:10:17;8.10;;;6.57;;
32347;SDS011;18821;44.800;10.326;2022-08-27T20:12:47;9.23;;;6.85;;
32347;SDS011;18821;44.800;10.326;2022-08-27T20:15:14;7.68;;;5.82;;
32347;SDS011;18821;44.800;10.326;2022-08-27T20:17:40;8.80;;;6.85;;
32347;SDS011;18821;44.800;10.326;2022-08-27T20:20:06;9.38;;;6.18;;
32347;SDS011;18821;44.800;10.326;2022-08-27T20:22:32;8.27;;;6.28;;
32347;SDS011;18821;44.800;10.326;2022-08-27T20:24:58;7.95;;;5.80;;
32347;SDS011;18821;44.800;10.326;2022-08-27T20:27:27;11.43;;;6.70;;
32347;SDS011;18821;44.800;10.326;2022-08-27T20:29:56;7.75;;;6.45;;
32347;SDS011;18821;44.800;10.326;2022-08-27T20:32:24;8.18;;;6.40;;
32347;SDS011;18821;44.800;10.326;2022-08-27T20:34:51;11.60;;;7.35;;
32347;SDS011;18821;44.800;10.326;2022-08-27T20:37:17;8.73;;;5.93;;
32347;SDS011;18821;44.800;10.326;2022-08-27T20:39:44;9.55;;;6.45;;
32347;SDS011;18821;44.800;10.326;2022-08-27T20:42:10;10.57;;;6.57;;
32347;SDS011;18821;44.800;10.326;2022-08-27T20:44:39;9.85;;;7.22;;
32347;SDS011;18821;44.800;10.326;2022-08-27T20:47:05;9.80;;;7.13;;
32347;SDS011;18821;44.800;10.326;2022-08-27T20:49:31;18.23;;;13.82;;
32347;SDS011;18821;44.800;10.326;2022-08-27T20:51:59;22.17;;;12.52;;
32347;SDS011;18821;44.800;10.326;2022-08-27T20:54:28;9.52;;;7.78;;
32347;SDS011;18821;44.800;10.326;2022-08-27T20:56:54;9.95;;;7.28;;
32347;SDS011;18821;44.800;10.326;2022-08-27T20:59:20;17.05;;;11.88;;
32347;SDS011;18821;44.800;10.326;2022-08-27T21:02:06;14.10;;;10.32;;
32347;SDS011;18821;44.800;10.326;2022-08-27T21:04:37;10.60;;;8.35;;
32347;SDS011;18821;44.800;10.326;2022-08-27T21:07:05;13.45;;;9.27;;
32347;SDS011;18821;44.800;10.326;2022-08-27T21:09:31;20.45;;;15.07;;
32347;SDS011;18821;44.800;10.326;2022-08-27T21:12:00;16.95;;;12.68;;
32347;SDS011;18821;44.800;10.326;2022-08-27T21:14:26;11.95;;;9.60;;
32347;SDS011;18821;44.800;10.326;2022-08-27T21:16:52;20.33;;;9.60;;
32347;SDS011;18821;44.800;10.326;2022-08-27T21:19:18;13.55;;;8.02;;
32347;SDS011;18821;44.800;10.326;2022-08-27T21:21:44;12.07;;;8.90;;
32347;SDS011;18821;44.800;10.326;2022-08-27T21:24:10;14.10;;;9.20;;
32347;SDS011;18821;44.800;10.326;2022-08-27T21:26:36;13.82;;;9.20;;
32347;SDS011;18821;44.800;10.326;2022-08-27T21:29:02;14.15;;;9.07;;
32347;SDS011;18821;44.800;10.326;2022-08-27T21:31:28;14.60;;;11.07;;
32347;SDS011;18821;44.800;10.326;2022-08-27T21:33:56;14.88;;;9.63;;
32347;SDS011;18821;44.800;10.326;2022-08-27T21:36:22;17.33;;;10.73;;
32347;SDS011;18821;44.800;10.326;2022-08-27T21:38:49;13.23;;;10.15;;
32347;SDS011;18821;44.800;10.326;2022-08-27T21:41:15;18.85;;;10.45;;
32347;SDS011;18821;44.800;10.326;2022-08-27T21:43:41;18.75;;;11.55;;
32347;SDS011;18821;44.800;10.326;2022-08-27T21:46:07;13.02;;;10.70;;
32347;SDS011;18821;44.800;10.326;2022-08-27T21:48:33;16.35;;;11.38;;
32347;SDS011;18821;44.800;10.326;2022-08-27T21:51:05;14.30;;;11.95;;
32347;SDS011;18821;44.800;10.326;2022-08-27T21:53:34;18.60;;;12.40;;
32347;SDS011;18821;44.800;10.326;2022-08-27T21:56:01;15.48;;;11.75;;
32347;SDS011;18821;44.800;10.326;2022-08-27T21:58:30;16.10;;;13.23;;
32347;SDS011;18821;44.800;10.326;2022-08-27T22:00:57;18.83;;;12.93;;
32347;SDS011;18821;44.800;10.326;2022-08-27T22:03:23;16.38;;;13.00;;
32347;SDS011;18821;44.800;10.326;2022-08-27T22:05:50;17.65;;;13.13;;
32347;SDS011;18821;44.800;10.326;2022-08-27T22:08:17;20.48;;;13.52;;
32347;SDS011;18821;44.800;10.326;2022-08-27T22:10:46;18.23;;;12.82;;
32347;SDS011;18821;44.800;10.326;2022-08-27T22:13:13;19.85;;;13.73;;
32347;SDS011;18821;44.800;10.326;2022-08-27T22:15:40;17.75;;;13.05;;
32347;SDS011;18821;44.800;10.326;2022-08-27T22:18:06;20.02;;;13.88;;
32347;SDS011;18821;44.800;10.326;2022-08-27T22:20:33;21.85;;;13.90;;
32347;SDS011;18821;44.800;10.326;2022-08-27T22:23:00;17.58;;;13.18;;
32347;SDS011;18821;44.800;10.326;2022-08-27T22:25:26;16.70;;;14.13;;
32347;SDS011;18821;44.800;10.326;2022-08-27T22:27:55;19.58;;;13.48;;
32347;SDS011;18821;44.800;10.326;2022-08-27T22:30:24;17.92;;;12.48;;
32347;SDS011;18821;44.800;10.326;2022-08-27T22:32:52;19.02;;;11.77;;
32347;SDS011;18821;44.800;10.326;2022-08-27T22:35:18;19.10;;;13.32;;
32347;SDS011;18821;44.800;10.326;2022-08-27T22:37:48;17.90;;;12.60;;
32347;SDS011;18821;44.800;10.326;2022-08-27T22:40:15;18.92;;;13.55;;
32347;SDS011;18821;44.800;10.326;2022-08-27T22:42:43;14.45;;;12.20;;
32347;SDS011;18821;44.800;10.326;2022-08-27T22:45:09;20.95;;;16.17;;
32347;SDS011;18821;44.800;10.326;2022-08-27T22:47:35;21.77;;;15.95;;
32347;SDS011;18821;44.800;10.326;2022-08-27T22:50:02;20.15;;;14.27;;
32347;SDS011;18821;44.800;10.326;2022-08-27T22:52:32;22.50;;;14.85;;
32347;SDS011;18821;44.800;10.326;2022-08-27T22:54:58;20.67;;;14.43;;
32347;SDS011;18821;44.800;10.326;2022-08-27T22:57:26;20.33;;;14.15;;
32347;SDS011;18821;44.800;10.326;2022-08-27T22:59:52;18.83;;;14.10;;
32347;SDS011;18821;44.800;10.326;2022-08-27T23:02:18;22.65;;;14.82;;
32347;SDS011;18821;44.800;10.326;2022-08-27T23:04:47;20.95;;;15.18;;
32347;SDS011;18821;44.800;10.326;2022-08-27T23:07:15;19.08;;;13.70;;
32347;SDS011;18821;44.800;10.326;2022-08-27T23:09:41;19.63;;;14.70;;
32347;SDS011;18821;44.800;10.326;2022-08-27T23:12:07;22.63;;;15.18;;
32347;SDS011;18821;44.800;10.326;2022-08-27T23:14:33;23.08;;;15.13;;
32347;SDS011;18821;44.800;10.326;2022-08-27T23:17:00;20.23;;;15.02;;
32347;SDS011;18821;44.800;10.326;2022-08-27T23:19:28;23.58;;;15.73;;
32347;SDS011;18821;44.800;10.326;2022-08-27T23:21:55;24.50;;;16.45;;
32347;SDS011;18821;44.800;10.326;2022-08-27T23:24:23;24.70;;;16.58;;
32347;SDS011;18821;44.800;10.326;2022-08-27T23:26:49;21.25;;;14.98;;
32347;SDS011;18821;44.800;10.326;2022-08-27T23:29:33;20.93;;;15.53;;
32347;SDS011;18821;44.800;10.326;2022-08-27T23:32:00;20.90;;;16.50;;
32347;SDS011;18821;44.800;10.326;2022-08-27T23:34:27;20.15;;;15.48;;
32347;SDS011;18821;44.800;10.326;2022-08-27T23:36:52;24.40;;;17.88;;
32347;SDS011;18821;44.800;10.326;2022-08-27T23:39:20;23.25;;;15.43;;
32347;SDS011;18821;44.800;10.326;2022-08-27T23:41:46;23.30;;;16.15;;
32347;SDS011;18821;44.800;10.326;2022-08-27T23:44:12;24.63;;;18.15;;
32347;SDS011;18821;44.800;10.326;2022-08-27T23:46:38;28.20;;;21.30;;
32347;SDS011;18821;44.800;10.326;2022-08-27T23:49:04;31.35;;;20.45;;
32347;SDS011;18821;44.800;10.326;2022-08-27T23:51:33;26.38;;;19.02;;
32347;SDS011;18821;44.800;10.326;2022-08-27T23:53:59;26.20;;;19.58;;
32347;SDS011;18821;44.800;10.326;2022-08-27T23:56:25;26.00;;;19.77;;
32347;SDS011;18821;44.800;10.326;2022-08-27T23:58:51;29.80;;;22.20;;
